Time;durP1;ratioP1;P1;durP2;ratioP2;P2;SDS_P1;SDS_P2;PMS_P1;PMS_P2;Temp;Humidity;BMP_temperature;BMP_pressure;BME280_temperature;BME280_humidity;BME280_pressure;Samples;Min_cycle;Max_cycle;Signal;HPM_P1;HPM_P2
2022/04/13 00:02:38;;;;;;;;;;;;;;;;;;5024160;28;20402;-84
2022/04/13 00:05:24;;;;;;;;;;;;;;;;;;5016777;28;19916;-82
2022/04/13 00:08:11;;;;;;;;;;;;;;;;;;5028730;28;19909;-81
2022/04/13 00:10:57;;;;;;;;;;;;;;;;;;5023005;28;19925;-82
2022/04/13 00:13:44;;;;;;;;;;;;;;;;;;5030825;28;19920;-82
2022/04/13 00:16:30;;;;;;;;;;;;;;;;;;5014061;28;19929;-81
2022/04/13 00:19:17;;;;;;;;;;;;;;;;;;5028921;28;19913;-81
2022/04/13 00:22:04;;;;;;;;;;;;;;;;;;5029063;28;19913;-82
2022/04/13 00:24:50;;;;;;;;;;;;;;;;;;5018879;28;20358;-82
2022/04/13 00:27:37;;;;;;;;;;;;;;;;;;5024354;28;19947;-82
2022/04/13 00:30:23;;;;;;;;;;;;;;;;;;5024712;28;19932;-82
2022/04/13 00:33:10;;;;;;;;;;;;;;;;;;5018326;28;19909;-82
2022/04/13 00:35:56;;;;;;;;;;;;;;;;;;5030199;28;19910;-83
2022/04/13 00:38:43;;;;;;;;;;;;;;;;;;5017872;28;19924;-82
2022/04/13 00:41:29;;;;;;;;;;;;;;;;;;5024722;28;19916;-83
2022/04/13 00:44:16;;;;;;;;;;;;;;;;;;5044509;28;19910;-83
2022/04/13 00:47:03;;;;;;;;;;;;;;;;;;5032417;28;19918;-82
2022/04/13 00:49:50;;;;;;;;;;;;;;;;;;5028282;28;20525;-83
2022/04/13 00:52:36;;;;;;;;;;;;;;;;;;5019911;28;19913;-86
2022/04/13 00:55:26;;;;;;;;;;;;;;;;;;5028167;28;19910;-86
2022/04/13 00:58:15;;;;;;;;;;;;;;;;;;5014791;28;19917;-85
2022/04/13 01:01:02;;;;;;;;;;;;;;;;;;5031619;28;19909;-85
2022/04/13 01:03:48;;;;;;;;;;;;;;;;;;5023813;28;19919;-85
2022/04/13 01:06:35;;;;;;;;;;;;;;;;;;5036998;28;19909;-85
2022/04/13 01:09:23;;;;;;;;;;;;;;;;;;5032919;28;19919;-86
2022/04/13 01:12:09;;;;;;;;;;;;;;;;;;5023965;28;19910;-85
2022/04/13 01:14:56;;;;;;;;;;;;;;;;;;5032132;28;19909;-85
2022/04/13 01:17:43;;;;;;;;;;;;;;;;;;5021784;28;19928;-84
2022/04/13 01:20:30;;;;;;;;;;;;;;;;;;5017486;28;19909;-84
2022/04/13 01:23:17;;;;;;;;;;;;;;;;;;5033158;28;19909;-85
2022/04/13 01:26:03;;;;;;;;;;;;;;;;;;5025213;28;19913;-85
2022/04/13 01:28:50;;;;;;;;;;;;;;;;;;5025482;28;20313;-85
2022/04/13 01:31:36;;;;;;;;;;;;;;;;;;5004635;28;19917;-85
2022/04/13 01:34:22;;;;;;;;;;;;;;;;;;4999547;28;20396;-84
2022/04/13 01:37:10;;;;;;;;;;;;;;;;;;5005620;28;19913;-83
2022/04/13 01:39:56;;;;;;;;;;;;;;;;;;5013778;28;19914;-83
2022/04/13 01:42:44;;;;;;;;;;;;;;;;;;5008590;28;20297;-83
2022/04/13 01:45:30;;;;;;;;;;;;;;;;;;5014847;28;19909;-84
2022/04/13 01:48:17;;;;;;;;;;;;;;;;;;5016339;28;19909;-85
2022/04/13 01:51:03;;;;;;;;;;;;;;;;;;5005203;28;19944;-85
2022/04/13 01:53:50;;;;;;;;;;;;;;;;;;4996249;28;20243;-86
2022/04/13 01:56:36;;;;;;;;;;;;;;;;;;5005957;28;20282;-86
2022/04/13 01:59:23;;;;;;;;;;;;;;;;;;5007778;28;19924;-86
2022/04/13 02:02:09;;;;;;;;;;;;;;;;;;4992403;28;20380;-86
2022/04/13 02:04:56;;;;;;;;;;;;;;;;;;5020055;28;19915;-85
2022/04/13 02:07:42;;;;;;;;;;;;;;;;;;4992935;28;19921;-85
2022/04/13 02:10:29;;;;;;;;;;;;;;;;;;4993203;28;19924;-84
2022/04/13 02:13:15;;;;;;;;;;;;;;;;;;5002198;28;19910;-86
2022/04/13 02:16:02;;;;;;;;;;;;;;;;;;4990682;28;19910;-85
2022/04/13 02:18:48;;;;;;;;;;;;;;;;;;4989746;28;19926;-86
2022/04/13 02:21:35;;;;;;;;;;;;;;;;;;4993307;28;19910;-87
2022/04/13 02:24:21;;;;;;;;;;;;;;;;;;5005338;28;19909;-87
2022/04/13 02:27:09;;;;;;;;;;;;;;;;;;4992243;28;20360;-85
2022/04/13 02:29:56;;;;;;;;;;;;;;;;;;5007197;28;20390;-85
2022/04/13 02:32:45;;;;;;;;;;;;;;;;;;5032825;28;19910;-84
2022/04/13 02:35:31;;;;;;;;;;;;;;;;;;5022201;28;19909;-85
2022/04/13 02:38:18;;;;;;;;;;;;;;;;;;5033250;28;19929;-83
2022/04/13 02:41:04;;;;;;;;;;;;;;;;;;5021100;28;20443;-84
2022/04/13 02:43:51;;;;;;;;;;;;;;;;;;5027825;28;20279;-84
2022/04/13 02:46:37;;;;;;;;;;;;;;;;;;5036649;28;19910;-84
2022/04/13 02:49:24;;;;;;;;;;;;;;;;;;5043366;28;19912;-83
2022/04/13 02:52:10;;;;;;;;;;;;;;;;;;5035780;28;19913;-84
2022/04/13 02:54:57;;;;;;;;;;;;;;;;;;5025405;28;19935;-83
2022/04/13 02:57:43;;;;;;;;;;;;;;;;;;5029953;28;19932;-83
2022/04/13 03:00:30;;;;;;;;;;;;;;;;;;5030290;28;20218;-84
2022/04/13 03:03:16;;;;;;;;;;;;;;;;;;5029321;28;19951;-84
2022/04/13 03:06:03;;;;;;;;;;;;;;;;;;5020672;28;20287;-84
2022/04/13 03:08:49;;;;;;;;;;;;;;;;;;5029237;28;19916;-86
2022/04/13 03:11:37;;;;;;;;;;;;;;;;;;5032718;28;20250;-84
2022/04/13 03:14:24;;;;;;;;;;;;;;;;;;5029633;28;19913;-85
2022/04/13 03:17:11;;;;;;;;;;;;;;;;;;5043390;28;19913;-85
2022/04/13 03:19:57;;;;;;;;;;;;;;;;;;5050097;28;19916;-84
2022/04/13 03:22:44;;;;;;;;;;;;;;;;;;5033921;28;20273;-83
2022/04/13 03:25:30;;;;;;;;;;;;;;;;;;5045376;28;19985;-84
2022/04/13 03:28:17;;;;;;;;;;;;;;;;;;5023552;28;19909;-84
2022/04/13 03:31:03;;;;;;;;;;;;;;;;;;5029210;28;19921;-83
2022/04/13 03:33:50;;;;;;;;;;;;;;;;;;5037636;28;19915;-82
2022/04/13 03:36:39;;;;;;;;;;;;;;;;;;5038293;28;19916;-82
2022/04/13 03:39:26;;;;;;;;;;;;;;;;;;5042524;28;19924;-82
2022/04/13 03:42:12;;;;;;;;;;;;;;;;;;5043183;28;19913;-81
2022/04/13 03:44:59;;;;;;;;;;;;;;;;;;5037909;28;19913;-85
2022/04/13 03:47:45;;;;;;;;;;;;;;;;;;5010775;28;19909;-83
2022/04/13 03:50:32;;;;;;;;;;;;;;;;;;5024781;28;20373;-84
2022/04/13 03:53:18;;;;;;;;;;;;;;;;;;5032754;28;19917;-83
2022/04/13 03:56:05;;;;;;;;;;;;;;;;;;5032028;28;19909;-81
2022/04/13 03:58:51;;;;;;;;;;;;;;;;;;5031765;28;19921;-82
2022/04/13 04:01:38;;;;;;;;;;;;;;;;;;5025691;28;20269;-82
2022/04/13 04:04:25;;;;;;;;;;;;;;;;;;5020096;28;19917;-83
2022/04/13 04:07:11;;;;;;;;;;;;;;;;;;5034509;28;19921;-83
2022/04/13 04:09:58;;;;;;;;;;;;;;;;;;5022492;28;19914;-83
2022/04/13 04:12:44;;;;;;;;;;;;;;;;;;5017390;28;19915;-84
2022/04/13 04:15:30;;;;;;;;;;;;;;;;;;5025625;28;20349;-83
2022/04/13 04:18:17;;;;;;;;;;;;;;;;;;5030709;28;19932;-83
2022/04/13 04:21:03;;;;;;;;;;;;;;;;;;5038098;28;19920;-83
2022/04/13 04:23:50;;;;;;;;;;;;;;;;;;5024974;28;19923;-83
2022/04/13 04:26:36;;;;;;;;;;;;;;;;;;5029355;28;19912;-83
2022/04/13 04:29:23;;;;;;;;;;;;;;;;;;5019454;28;19917;-82
2022/04/13 04:32:09;;;;;;;;;;;;;;;;;;5020694;28;19920;-83
2022/04/13 04:34:56;;;;;;;;;;;;;;;;;;5031174;28;19916;-83
2022/04/13 04:37:42;;;;;;;;;;;;;;;;;;5024685;28;19917;-83
2022/04/13 04:40:29;;;;;;;;;;;;;;;;;;5024712;28;20333;-82
2022/04/13 04:43:15;;;;;;;;;;;;;;;;;;5028161;28;19909;-82
2022/04/13 04:46:02;;;;;;;;;;;;;;;;;;5016642;28;20285;-83
2022/04/13 04:48:48;;;;;;;;;;;;;;;;;;5022608;28;19913;-82
2022/04/13 04:51:35;;;;;;;;;;;;;;;;;;5023414;28;19931;-83
2022/04/13 04:54:21;;;;;;;;;;;;;;;;;;5030267;28;19909;-83
2022/04/13 04:57:08;;;;;;;;;;;;;;;;;;5031134;28;19935;-84
2022/04/13 04:59:54;;;;;;;;;;;;;;;;;;5015058;28;19919;-83
2022/04/13 05:02:41;;;;;;;;;;;;;;;;;;5034659;28;20309;-83
2022/04/13 05:05:27;;;;;;;;;;;;;;;;;;5028313;28;19913;-84
2022/04/13 05:08:14;;;;;;;;;;;;;;;;;;5025702;28;19913;-83
2022/04/13 05:11:01;;;;;;;;;;;;;;;;;;5030232;28;19917;-81
2022/04/13 05:13:47;;;;;;;;;;;;;;;;;;5030648;28;19933;-81
2022/04/13 05:16:34;;;;;;;;;;;;;;;;;;5026291;28;19983;-82
2022/04/13 05:19:21;;;;;;;;;;;;;;;;;;5032104;28;19917;-82
2022/04/13 05:22:07;;;;;;;;;;;;;;;;;;5023698;28;19936;-81
2022/04/13 05:24:53;;;;;;;;;;;;;;;;;;5034221;28;19915;-83
2022/04/13 05:27:40;;;;;;;;;;;;;;;;;;5024535;28;20349;-83
2022/04/13 05:30:26;;;;;;;;;;;;;;;;;;5026830;28;19925;-83
2022/04/13 05:33:13;;;;;;;;;;;;;;;;;;5034442;28;19913;-82
2022/04/13 05:36:00;;;;;;;;;;;;;;;;;;5008245;28;19924;-83
2022/04/13 05:38:46;;;;;;;;;;;;;;;;;;5023684;28;19925;-82
2022/04/13 05:41:33;;;;;;;;;;;;;;;;;;5024464;28;19917;-82
2022/04/13 05:44:19;;;;;;;;;;;;;;;;;;5012063;28;19936;-82
2022/04/13 05:47:06;;;;;;;;;;;;;;;;;;5016634;28;19916;-82
2022/04/13 05:49:52;;;;;;;;;;;;;;;;;;5030273;28;19909;-82
2022/04/13 05:52:39;;;;;;;;;;;;;;;;;;5023672;28;19913;-82
2022/04/13 05:55:25;;;;;;;;;;;;;;;;;;5029083;28;19908;-82
2022/04/13 05:58:12;;;;;;;;;;;;;;;;;;5013496;28;19922;-81
2022/04/13 06:00:58;;;;;;;;;;;;;;;;;;5023673;28;19909;-82
2022/04/13 06:03:45;;;;;;;;;;;;;;;;;;5021739;28;19920;-82
2022/04/13 06:06:31;;;;;;;;;;;;;;;;;;5025030;28;19916;-82
2022/04/13 06:09:18;;;;;;;;;;;;;;;;;;5024044;28;19910;-82
2022/04/13 06:12:04;;;;;;;;;;;;;;;;;;5020885;28;19913;-83
2022/04/13 06:14:50;;;;;;;;;;;;;;;;;;5017717;28;19917;-83
2022/04/13 06:17:37;;;;;;;;;;;;;;;;;;5020156;28;19931;-83
2022/04/13 06:20:23;;;;;;;;;;;;;;;;;;5016250;28;19914;-82
2022/04/13 06:23:10;;;;;;;;;;;;;;;;;;5019277;28;20023;-81
2022/04/13 06:25:56;;;;;;;;;;;;;;;;;;5022247;28;20004;-81
2022/04/13 06:28:43;;;;;;;;;;;;;;;;;;5020529;28;19918;-82
2022/04/13 06:31:29;;;;;;;;;;;;;;;;;;5015600;28;19928;-81
2022/04/13 06:34:16;;;;;;;;;;;;;;;;;;5026421;28;19908;-83
2022/04/13 06:37:02;;;;;;;;;;;;;;;;;;5041710;28;19917;-83
2022/04/13 06:39:49;;;;;;;;;;;;;;;;;;5026433;28;19928;-82
2022/04/13 06:42:36;;;;;;;;;;;;;;;;;;5016483;28;19920;-82
2022/04/13 06:45:23;;;;;;;;;;;;;;;;;;5015182;28;20408;-82
2022/04/13 06:48:09;;;;;;;;;;;;;;;;;;5017777;28;19921;-82
2022/04/13 06:50:56;;;;;;;;;;;;;;;;;;5016102;28;19920;-83
2022/04/13 06:53:43;;;;;;;;;;;;;;;;;;5015613;28;19917;-82
2022/04/13 06:56:29;;;;;;;;;;;;;;;;;;5021558;28;20030;-81
2022/04/13 06:59:16;;;;;;;;;;;;;;;;;;5021417;28;20388;-81
2022/04/13 07:02:02;;;;;;;;;;;;;;;;;;5039569;28;19909;-82
2022/04/13 07:04:49;;;;;;;;;;;;;;;;;;5019894;28;19917;-88
2022/04/13 07:07:35;;;;;;;;;;;;;;;;;;5025150;28;19915;-87
2022/04/13 07:10:22;;;;;;;;;;;;;;;;;;5014931;28;19909;-86
2022/04/13 07:13:10;;;;;;;;;;;;;;;;;;5031273;28;20329;-85
2022/04/13 07:15:57;;;;;;;;;;;;;;;;;;5022016;28;19909;-86
2022/04/13 07:18:44;;;;;;;;;;;;;;;;;;5040610;28;19917;-85
2022/04/13 07:21:30;;;;;;;;;;;;;;;;;;5034690;28;19920;-87
2022/04/13 07:24:17;;;;;;;;;;;;;;;;;;5040974;28;19913;-86
2022/04/13 07:27:03;;;;;;;;;;;;;;;;;;5024230;28;19924;-87
2022/04/13 07:29:50;;;;;;;;;;;;;;;;;;5019059;28;20393;-87
2022/04/13 07:32:36;;;;;;;;;;;;;;;;;;5022343;28;19923;-86
2022/04/13 07:35:22;;;;;;;;;;;;;;;;;;5025927;28;19952;-85
2022/04/13 07:38:09;;;;;;;;;;;;;;;;;;5029691;28;19928;-86
2022/04/13 07:40:58;;;;;;;;;;;;;;;;;;5031966;28;19936;-85
2022/04/13 07:43:44;;;;;;;;;;;;;;;;;;5026103;28;20372;-85
2022/04/13 07:46:31;;;;;;;;;;;;;;;;;;5014514;28;19910;-85
2022/04/13 07:49:17;;;;;;;;;;;;;;;;;;5023041;28;19913;-86
2022/04/13 07:52:04;;;;;;;;;;;;;;;;;;5018327;28;19920;-86
2022/04/13 07:54:50;;;;;;;;;;;;;;;;;;5021575;28;19913;-87
2022/04/13 07:57:37;;;;;;;;;;;;;;;;;;5026526;28;20221;-85
2022/04/13 08:00:24;;;;;;;;;;;;;;;;;;5024058;28;19913;-84
2022/04/13 08:03:11;;;;;;;;;;;;;;;;;;5029238;28;19927;-87
2022/04/13 08:05:58;;;;;;;;;;;;;;;;;;5023094;28;20266;-86
2022/04/13 08:08:44;;;;;;;;;;;;;;;;;;5021572;28;20301;-88
2022/04/13 08:11:31;;;;;;;;;;;;;;;;;;5031877;28;19916;-87
2022/04/13 08:14:17;;;;;;;;;;;;;;;;;;5016071;28;19918;-86
2022/04/13 08:17:05;;;;;;;;;;;;;;;;;;5028266;28;19920;-87
2022/04/13 08:19:51;;;;;;;;;;;;;;;;;;5025623;28;19921;-87
2022/04/13 08:22:37;;;;;;;;;;;;;;;;;;5028170;28;19915;-87
2022/04/13 08:25:24;;;;;;;;;;;;;;;;;;5046976;28;19915;-87
2022/04/13 08:28:10;;;;;;;;;;;;;;;;;;5032241;28;19913;-87
2022/04/13 08:30:57;;;;;;;;;;;;;;;;;;5037497;28;19952;-87
2022/04/13 08:33:43;;;;;;;;;;;;;;;;;;5015260;28;19909;-87
2022/04/13 08:36:30;;;;;;;;;;;;;;;;;;5033822;28;20285;-90
2022/04/13 08:39:16;;;;;;;;;;;;;;;;;;5039135;28;19923;-89
2022/04/13 08:42:03;;;;;;;;;;;;;;;;;;5036420;28;20269;-90
2022/04/13 08:44:49;;;;;;;;;;;;;;;;;;5023673;28;19920;-89
2022/04/13 08:47:36;;;;;;;;;;;;;;;;;;5020317;28;20288;-88
2022/04/13 08:50:22;;;;;;;;;;;;;;;;;;5022338;28;19909;-88
2022/04/13 08:53:09;;;;;;;;;;;;;;;;;;5023585;28;20251;-89
2022/04/13 08:55:55;;;;;;;;;;;;;;;;;;5021116;28;19938;-88
2022/04/13 08:58:42;;;;;;;;;;;;;;;;;;5019423;28;20293;-89
2022/04/13 09:01:29;;;;;;;;;;;;;;;;;;5012870;28;19913;-81
2022/04/13 09:04:15;;;;;;;;;;;;;;;;;;5024013;28;19917;-88
2022/04/13 09:07:02;;;;;;;;;;;;;;;;;;5032893;28;19917;-89
2022/04/13 09:09:48;;;;;;;;;;;;;;;;;;5022009;28;20361;-89
2022/04/13 09:12:35;;;;;;;;;;;;;;;;;;5032009;28;19914;-94
2022/04/13 09:15:27;;;;;;;;;;;;;;;;;;5013165;28;19917;-88
2022/04/13 09:18:13;;;;;;;;;;;;;;;;;;5021965;28;19921;-87
2022/04/13 09:21:00;;;;;;;;;;;;;;;;;;5024449;28;19932;-89
2022/04/13 09:23:46;;;;;;;;;;;;;;;;;;5019647;28;19924;-92
2022/04/13 09:26:33;;;;;;;;;;;;;;;;;;5020103;28;19916;-85
2022/04/13 09:29:19;;;;;;;;;;;;;;;;;;5027975;28;19917;-85
2022/04/13 09:32:06;;;;;;;;;;;;;;;;;;5019853;28;19913;-83
2022/04/13 09:34:52;;;;;;;;;;;;;;;;;;5018248;28;19917;-83
2022/04/13 09:37:39;;;;;;;;;;;;;;;;;;5027036;28;20277;-82
2022/04/13 09:40:25;;;;;;;;;;;;;;;;;;5027912;28;19921;-84
2022/04/13 09:43:12;;;;;;;;;;;;;;;;;;5017105;28;19916;-82
2022/04/13 09:45:58;;;;;;;;;;;;;;;;;;5009550;28;19920;-82
2022/04/13 09:48:52;;;;;;;;;;;;;;;;;;5027532;28;19909;-85
2022/04/13 09:51:39;;;;;;;;;;;;;;;;;;5015882;28;19910;-84
2022/04/13 09:54:25;;;;;;;;;;;;;;;;;;5028915;28;19929;-83
2022/04/13 09:57:12;;;;;;;;;;;;;;;;;;5016961;28;19916;-83
2022/04/13 09:59:58;;;;;;;;;;;;;;;;;;5022490;28;19940;-83
2022/04/13 10:02:45;;;;;;;;;;;;;;;;;;5028274;28;19909;-83
2022/04/13 10:05:31;;;;;;;;;;;;;;;;;;5010012;28;19920;-84
2022/04/13 10:08:24;;;;;;;;;;;;;;;;;;5013497;28;20403;-84
2022/04/13 10:11:12;;;;;;;;;;;;;;;;;;5029125;28;19917;-83
2022/04/13 10:13:58;;;;;;;;;;;;;;;;;;5036649;28;20284;-84
2022/04/13 10:16:45;;;;;;;;;;;;;;;;;;5019256;28;19916;-83
2022/04/13 10:19:31;;;;;;;;;;;;;;;;;;5027037;28;19959;-84
2022/04/13 10:22:18;;;;;;;;;;;;;;;;;;5026558;28;19909;-83
2022/04/13 10:25:04;;;;;;;;;;;;;;;;;;5031059;28;19913;-84
2022/04/13 10:27:51;;;;;;;;;;;;;;;;;;5018867;28;19924;-84
2022/04/13 10:30:37;;;;;;;;;;;;;;;;;;5018303;28;19927;-85
2022/04/13 10:33:24;;;;;;;;;;;;;;;;;;5027175;28;19909;-84
2022/04/13 10:36:10;;;;;;;;;;;;;;;;;;5018621;28;19916;-87
2022/04/13 10:39:00;;;;;;;;;;;;;;;;;;5023124;28;19924;-86
2022/04/13 10:41:48;;;;;;;;;;;;;;;;;;5018518;28;19932;-86
2022/04/13 10:44:35;;;;;;;;;;;;;;;;;;5011429;28;20377;-86
2022/04/13 10:47:27;;;;;;;;;;;;;;;;;;5028045;28;19913;-84
2022/04/13 10:50:13;;;;;;;;;;;;;;;;;;5024702;28;20652;-86
2022/04/13 10:53:00;;;;;;;;;;;;;;;;;;5018231;28;20289;-84
2022/04/13 10:55:49;;;;;;;;;;;;;;;;;;5025595;28;19908;-86
2022/04/13 10:58:37;;;;;;;;;;;;;;;;;;5022917;28;19925;-87
2022/04/13 11:01:23;;;;;;;;;;;;;;;;;;5019382;28;19910;-85
2022/04/13 11:04:09;;;;;;;;;;;;;;;;;;5019694;28;19909;-87
2022/04/13 11:06:56;;;;;;;;;;;;;;;;;;5020028;28;20191;-86
2022/04/13 11:09:43;;;;;;;;;;;;;;;;;;5023568;28;19920;-86
2022/04/13 11:12:29;;;;;;;;;;;;;;;;;;5023054;28;19913;-86
2022/04/13 11:15:16;;;;;;;;;;;;;;;;;;5025124;28;19946;-83
2022/04/13 11:18:02;;;;;;;;;;;;;;;;;;5021563;28;20391;-84
2022/04/13 11:20:49;;;;;;;;;;;;;;;;;;5033657;28;19923;-85
2022/04/13 11:23:35;;;;;;;;;;;;;;;;;;5026236;28;19913;-85
2022/04/13 11:26:21;;;;;;;;;;;;;;;;;;5028490;28;19913;-87
2022/04/13 11:29:08;;;;;;;;;;;;;;;;;;5031536;28;19936;-86
2022/04/13 11:31:54;;;;;;;;;;;;;;;;;;5008969;28;19924;-86
2022/04/13 11:34:41;;;;;;;;;;;;;;;;;;5000939;28;19921;-87
2022/04/13 11:37:27;;;;;;;;;;;;;;;;;;5015314;28;19913;-88
2022/04/13 11:40:14;;;;;;;;;;;;;;;;;;5012796;28;19933;-86
2022/04/13 11:43:00;;;;;;;;;;;;;;;;;;5013412;28;19918;-88
2022/04/13 11:45:47;;;;;;;;;;;;;;;;;;5002919;28;19913;-88
2022/04/13 11:48:33;;;;;;;;;;;;;;;;;;5008189;28;19916;-92
2022/04/13 11:51:20;;;;;;;;;;;;;;;;;;5013416;28;19909;-86
2022/04/13 11:54:06;;;;;;;;;;;;;;;;;;5006565;28;19916;-83
2022/04/13 11:56:54;;;;;;;;;;;;;;;;;;5009119;28;19916;-82
2022/04/13 11:59:40;;;;;;;;;;;;;;;;;;5001568;28;19925;-78
2022/04/13 12:02:27;;;;;;;;;;;;;;;;;;5005138;28;20373;-80
2022/04/13 12:05:14;;;;;;;;;;;;;;;;;;5002266;28;20228;-83
2022/04/13 12:08:00;;;;;;;;;;;;;;;;;;5015165;28;19913;-81
2022/04/13 12:10:47;;;;;;;;;;;;;;;;;;4996376;28;19910;-82
2022/04/13 12:13:33;;;;;;;;;;;;;;;;;;4997757;28;20163;-83
2022/04/13 12:16:20;;;;;;;;;;;;;;;;;;4997319;28;20317;-83
2022/04/13 12:19:07;;;;;;;;;;;;;;;;;;5004010;28;19947;-83
2022/04/13 12:21:53;;;;;;;;;;;;;;;;;;5000989;28;19917;-82
2022/04/13 12:24:40;;;;;;;;;;;;;;;;;;5004786;28;19913;-83
2022/04/13 12:27:26;;;;;;;;;;;;;;;;;;4996255;28;20389;-84
2022/04/13 12:30:13;;;;;;;;;;;;;;;;;;5011263;28;19943;-83
2022/04/13 12:32:59;;;;;;;;;;;;;;;;;;5012838;28;20381;-82
2022/04/13 12:35:46;;;;;;;;;;;;;;;;;;5019072;28;19918;-82
2022/04/13 12:38:33;;;;;;;;;;;;;;;;;;5011107;28;19914;-82
2022/04/13 12:41:20;;;;;;;;;;;;;;;;;;5013997;28;19914;-83
2022/04/13 12:44:07;;;;;;;;;;;;;;;;;;5024459;28;19920;-83
2022/04/13 12:46:54;;;;;;;;;;;;;;;;;;5020277;28;19909;-83
2022/04/13 12:49:40;;;;;;;;;;;;;;;;;;5019699;28;19909;-83
2022/04/13 12:52:27;;;;;;;;;;;;;;;;;;5021023;28;19917;-83
2022/04/13 12:55:13;;;;;;;;;;;;;;;;;;5026864;28;19910;-82
2022/04/13 12:58:00;;;;;;;;;;;;;;;;;;5005115;28;19921;-81
2022/04/13 13:00:47;;;;;;;;;;;;;;;;;;5018071;28;19924;-82
2022/04/13 13:03:34;;;;;;;;;;;;;;;;;;5029005;28;19920;-81
2022/04/13 13:06:20;;;;;;;;;;;;;;;;;;5022898;28;19920;-81
2022/04/13 13:09:07;;;;;;;;;;;;;;;;;;5024429;28;20513;-81
2022/04/13 13:11:53;;;;;;;;;;;;;;;;;;5022653;28;19920;-80
2022/04/13 13:14:40;;;;;;;;;;;;;;;;;;5025268;28;19917;-81
2022/04/13 13:17:37;;;;;;;;;;;;;;;;;;5023669;28;19924;-81
2022/04/13 13:20:23;;;;;;;;;;;;;;;;;;5020780;28;19962;-82
2022/04/13 13:23:10;;;;;;;;;;;;;;;;;;5023306;28;20213;-82
2022/04/13 13:25:58;;;;;;;;;;;;;;;;;;5024848;28;19920;-81
2022/04/13 13:28:44;;;;;;;;;;;;;;;;;;5018946;28;19914;-82
2022/04/13 13:31:30;;;;;;;;;;;;;;;;;;5014492;28;19964;-82
2022/04/13 13:34:17;;;;;;;;;;;;;;;;;;5012780;28;20257;-82
2022/04/13 13:37:03;;;;;;;;;;;;;;;;;;5022883;28;19909;-82
2022/04/13 13:39:50;;;;;;;;;;;;;;;;;;5020986;28;19922;-82
2022/04/13 13:42:36;;;;;;;;;;;;;;;;;;5016016;28;19909;-80
2022/04/13 13:45:23;;;;;;;;;;;;;;;;;;5013991;28;19916;-81
2022/04/13 13:48:09;;;;;;;;;;;;;;;;;;5013129;28;19920;-82
2022/04/13 13:50:56;;;;;;;;;;;;;;;;;;5013107;28;19909;-83
2022/04/13 13:53:45;;;;;;;;;;;;;;;;;;5020012;28;19910;-83
2022/04/13 13:56:31;;;;;;;;;;;;;;;;;;5023717;28;19922;-82
2022/04/13 13:59:18;;;;;;;;;;;;;;;;;;5011880;28;19992;-82
2022/04/13 14:02:04;;;;;;;;;;;;;;;;;;5020827;28;19913;-82
2022/04/13 14:04:51;;;;;;;;;;;;;;;;;;5024972;28;19910;-82
2022/04/13 14:07:37;;;;;;;;;;;;;;;;;;5025528;28;19913;-82
2022/04/13 14:10:24;;;;;;;;;;;;;;;;;;5020297;28;19913;-83
2022/04/13 14:16:20;;;;;;;;;;;;;;;;;;5028398;28;19913;-86
2022/04/13 14:19:33;;;;;;;;;;;;;;;;;;5031425;28;19928;-89
2022/04/13 14:22:19;;;;;;;;;;;;;;;;;;5023216;28;19917;-89
2022/04/13 14:25:06;;;;;;;;;;;;;;;;;;5037332;28;19932;-88
2022/04/13 14:27:53;;;;;;;;;;;;;;;;;;5042077;28;19913;-86
2022/04/13 14:30:40;;;;;;;;;;;;;;;;;;5026522;28;19922;-86
2022/04/13 14:33:26;;;;;;;;;;;;;;;;;;5025299;28;19914;-87
2022/04/13 14:36:13;;;;;;;;;;;;;;;;;;5035598;28;19909;-87
2022/04/13 14:38:59;;;;;;;;;;;;;;;;;;5039555;28;19927;-87
2022/04/13 14:41:48;;;;;;;;;;;;;;;;;;5040490;28;20357;-88
2022/04/13 14:44:35;;;;;;;;;;;;;;;;;;5024576;28;19916;-87
2022/04/13 14:47:21;;;;;;;;;;;;;;;;;;5047472;28;19913;-91
2022/04/13 14:50:08;;;;;;;;;;;;;;;;;;5051641;28;19916;-89
2022/04/13 14:52:55;;;;;;;;;;;;;;;;;;5045309;28;19909;-88
2022/04/13 14:55:41;;;;;;;;;;;;;;;;;;5035481;28;20306;-89
2022/04/13 14:58:27;;;;;;;;;;;;;;;;;;5037576;28;19927;-88
2022/04/13 15:01:14;;;;;;;;;;;;;;;;;;5027288;28;19914;-86
2022/04/13 15:04:00;;;;;;;;;;;;;;;;;;5028958;28;19909;-84
2022/04/13 15:06:47;;;;;;;;;;;;;;;;;;5031817;28;19916;-87
2022/04/13 15:09:33;;;;;;;;;;;;;;;;;;5030966;28;19917;-85
2022/04/13 15:12:21;;;;;;;;;;;;;;;;;;5036059;28;19909;-84
2022/04/13 15:15:08;;;;;;;;;;;;;;;;;;5016422;28;19909;-85
2022/04/13 15:17:55;;;;;;;;;;;;;;;;;;5031410;28;19913;-83
2022/04/13 15:20:41;;;;;;;;;;;;;;;;;;5024806;28;19929;-85
2022/04/13 15:23:28;;;;;;;;;;;;;;;;;;5022734;28;19909;-86
2022/04/13 15:26:17;;;;;;;;;;;;;;;;;;5023915;28;19909;-86
2022/04/13 15:29:03;;;;;;;;;;;;;;;;;;5020911;28;19914;-92
2022/04/13 15:31:50;;;;;;;;;;;;;;;;;;5025479;28;19913;-87
2022/04/13 15:34:36;;;;;;;;;;;;;;;;;;5040258;28;19952;-92
2022/04/13 15:37:26;;;;;;;;;;;;;;;;;;5038353;28;20376;-92
2022/04/13 15:40:12;;;;;;;;;;;;;;;;;;5015907;28;20401;-87
2022/04/13 15:42:59;;;;;;;;;;;;;;;;;;5029890;28;20259;-86
2022/04/13 15:45:45;;;;;;;;;;;;;;;;;;5030198;28;19916;-85
2022/04/13 15:48:32;;;;;;;;;;;;;;;;;;5037618;28;19917;-84
2022/04/13 15:51:18;;;;;;;;;;;;;;;;;;5014589;28;20399;-85
2022/04/13 15:54:05;;;;;;;;;;;;;;;;;;5036539;28;19913;-87
2022/04/13 15:56:51;;;;;;;;;;;;;;;;;;5047345;28;19928;-87
2022/04/13 15:59:38;;;;;;;;;;;;;;;;;;5031727;28;19932;-87
2022/04/13 16:02:25;;;;;;;;;;;;;;;;;;5030411;28;20407;-87
2022/04/13 16:05:13;;;;;;;;;;;;;;;;;;5029188;28;19924;-81
2022/04/13 16:08:00;;;;;;;;;;;;;;;;;;5023150;28;19916;-82
2022/04/13 16:10:46;;;;;;;;;;;;;;;;;;5025434;28;19909;-85
2022/04/13 16:13:33;;;;;;;;;;;;;;;;;;5026254;28;19910;-86
2022/04/13 16:16:20;;;;;;;;;;;;;;;;;;5029441;28;19917;-85
2022/04/13 16:19:13;;;;;;;;;;;;;;;;;;5032721;28;19913;-87
2022/04/13 16:22:00;;;;;;;;;;;;;;;;;;5006274;28;19917;-85
2022/04/13 16:24:46;;;;;;;;;;;;;;;;;;5016706;28;19916;-86
2022/04/13 16:27:33;;;;;;;;;;;;;;;;;;5022605;28;19937;-85
2022/04/13 16:30:19;;;;;;;;;;;;;;;;;;5031074;28;19936;-86
2022/04/13 16:33:08;;;;;;;;;;;;;;;;;;5032409;28;19909;-86
2022/04/13 16:35:57;;;;;;;;;;;;;;;;;;5020621;28;20585;-85
2022/04/13 16:38:45;;;;;;;;;;;;;;;;;;5031985;28;19916;-87
2022/04/13 16:41:32;;;;;;;;;;;;;;;;;;5034300;28;19920;-87
2022/04/13 16:44:18;;;;;;;;;;;;;;;;;;5028899;28;19920;-86
2022/04/13 16:47:05;;;;;;;;;;;;;;;;;;5026625;28;19910;-89
2022/04/13 16:49:53;;;;;;;;;;;;;;;;;;5026683;28;19909;-88
2022/04/13 16:52:39;;;;;;;;;;;;;;;;;;5031260;28;19909;-87
2022/04/13 16:55:27;;;;;;;;;;;;;;;;;;5046988;28;19935;-89
2022/04/13 16:58:14;;;;;;;;;;;;;;;;;;5030526;28;19932;-89
2022/04/13 17:01:00;;;;;;;;;;;;;;;;;;5030075;28;19932;-88
2022/04/13 17:03:47;;;;;;;;;;;;;;;;;;5048039;28;19909;-90
2022/04/13 17:06:33;;;;;;;;;;;;;;;;;;5050628;28;19909;-90
2022/04/13 17:09:20;;;;;;;;;;;;;;;;;;5023437;28;19919;-89
2022/04/13 17:12:06;;;;;;;;;;;;;;;;;;5035374;28;19909;-86
2022/04/13 17:14:53;;;;;;;;;;;;;;;;;;5036670;28;19924;-86
2022/04/13 17:17:39;;;;;;;;;;;;;;;;;;5019538;28;19936;-87
2022/04/13 17:20:26;;;;;;;;;;;;;;;;;;5032506;28;20103;-89
2022/04/13 17:23:12;;;;;;;;;;;;;;;;;;5022581;28;19932;-87
2022/04/13 17:26:01;;;;;;;;;;;;;;;;;;5035388;28;20353;-87
2022/04/13 17:28:47;;;;;;;;;;;;;;;;;;5045356;28;19916;-87
2022/04/13 17:31:34;;;;;;;;;;;;;;;;;;5023479;28;19917;-89
2022/04/13 17:34:20;;;;;;;;;;;;;;;;;;5023507;28;19931;-86
2022/04/13 17:37:08;;;;;;;;;;;;;;;;;;5019581;28;20295;-91
2022/04/13 17:39:55;;;;;;;;;;;;;;;;;;5030284;28;19917;-90
2022/04/13 17:42:41;;;;;;;;;;;;;;;;;;5019356;28;19910;-88
2022/04/13 17:45:28;;;;;;;;;;;;;;;;;;5028912;28;19920;-86
2022/04/13 17:48:14;;;;;;;;;;;;;;;;;;5027187;28;19913;-86
2022/04/13 17:51:01;;;;;;;;;;;;;;;;;;5035762;28;19909;-85
2022/04/13 17:53:47;;;;;;;;;;;;;;;;;;5039950;28;19893;-88
2022/04/13 17:56:34;;;;;;;;;;;;;;;;;;5032474;28;19909;-87
2022/04/13 17:59:23;;;;;;;;;;;;;;;;;;5034758;28;19925;-89
2022/04/13 18:02:09;;;;;;;;;;;;;;;;;;5024148;28;19913;-88
2022/04/13 18:04:56;;;;;;;;;;;;;;;;;;5034632;28;19915;-89
2022/04/13 18:07:43;;;;;;;;;;;;;;;;;;5033784;28;19913;-89
2022/04/13 18:10:30;;;;;;;;;;;;;;;;;;5028884;28;19910;-87
2022/04/13 18:13:16;;;;;;;;;;;;;;;;;;5033021;28;19909;-88
2022/04/13 18:16:02;;;;;;;;;;;;;;;;;;5038929;28;19920;-88
2022/04/13 18:18:49;;;;;;;;;;;;;;;;;;5024895;28;19917;-87
2022/04/13 18:21:36;;;;;;;;;;;;;;;;;;5025474;28;19923;-89
2022/04/13 18:24:22;;;;;;;;;;;;;;;;;;5028791;28;19920;-89
2022/04/13 18:27:08;;;;;;;;;;;;;;;;;;5025052;28;19909;-88
2022/04/13 18:29:55;;;;;;;;;;;;;;;;;;5028850;28;19921;-88
2022/04/13 18:32:41;;;;;;;;;;;;;;;;;;5023506;28;19909;-87
2022/04/13 18:35:28;;;;;;;;;;;;;;;;;;5019198;28;19909;-89
2022/04/13 18:38:14;;;;;;;;;;;;;;;;;;5029363;28;20345;-88
2022/04/13 18:41:01;;;;;;;;;;;;;;;;;;5022737;28;19917;-88
2022/04/13 18:43:47;;;;;;;;;;;;;;;;;;5021654;28;19909;-89
2022/04/13 18:46:34;;;;;;;;;;;;;;;;;;5039525;28;19920;-89
2022/04/13 18:49:21;;;;;;;;;;;;;;;;;;5018326;28;19920;-88
2022/04/13 18:52:07;;;;;;;;;;;;;;;;;;5038175;28;19912;-88
2022/04/13 18:54:54;;;;;;;;;;;;;;;;;;5032350;28;19909;-90
2022/04/13 18:57:40;;;;;;;;;;;;;;;;;;5016046;28;20530;-88
2022/04/13 19:00:27;;;;;;;;;;;;;;;;;;5038596;28;19925;-90
2022/04/13 19:03:14;;;;;;;;;;;;;;;;;;5032277;28;19924;-88